sensor_id;sensor_type;location;lat;lon;timestamp;pressure;altitude;pressure_sealevel;temperature;humidity
72558;BME280;60583;50.094;8.748;2023-03-04T00:01:49;101290.34;;;2.33;77.55
72558;BME280;60583;50.094;8.748;2023-03-04T00:04:15;101307.66;;;2.35;78.29
72558;BME280;60583;50.094;8.748;2023-03-04T00:06:41;101272.34;;;2.06;78.41
72558;BME280;60583;50.094;8.748;2023-03-04T00:09:07;101264.69;;;2.03;78.15
72558;BME280;60583;50.094;8.748;2023-03-04T00:11:32;101261.34;;;2.01;78.43
72558;BME280;60583;50.094;8.748;2023-03-04T00:13:58;101230.31;;;1.73;78.29
72558;BME280;60583;50.094;8.748;2023-03-04T00:16:24;101303.25;;;2.25;78.64
72558;BME280;60583;50.094;8.748;2023-03-04T00:18:53;101258.72;;;1.90;78.33
72558;BME280;60583;50.094;8.748;2023-03-04T00:21:19;101298.88;;;2.03;79.32
72558;BME280;60583;50.094;8.748;2023-03-04T00:23:45;101230.31;;;1.62;79.19
72558;BME280;60583;50.094;8.748;2023-03-04T00:26:10;101305.78;;;2.15;78.38
72558;BME280;60583;50.094;8.748;2023-03-04T00:28:38;101315.84;;;2.21;79.03
72558;BME280;60583;50.094;8.748;2023-03-04T00:31:05;101298.28;;;2.00;79.35
72558;BME280;60583;50.094;8.748;2023-03-04T00:33:30;101307.13;;;2.10;79.00
72558;BME280;60583;50.094;8.748;2023-03-04T00:35:56;101275.81;;;1.84;78.89
72558;BME280;60583;50.094;8.748;2023-03-04T00:38:21;101286.25;;;1.86;79.09
72558;BME280;60583;50.094;8.748;2023-03-04T00:40:47;101297.19;;;2.02;79.07
72558;BME280;60583;50.094;8.748;2023-03-04T00:43:12;101303.31;;;2.14;78.56
72558;BME280;60583;50.094;8.748;2023-03-04T00:45:38;101317.88;;;2.18;78.71
72558;BME280;60583;50.094;8.748;2023-03-04T00:48:03;101309.84;;;2.19;78.77
72558;BME280;60583;50.094;8.748;2023-03-04T00:50:29;101315.00;;;2.21;78.96
72558;BME280;60583;50.094;8.748;2023-03-04T00:52:54;101227.69;;;1.73;78.93
72558;BME280;60583;50.094;8.748;2023-03-04T00:55:19;101274.25;;;2.04;78.40
72558;BME280;60583;50.094;8.748;2023-03-04T00:57:45;101311.06;;;2.26;78.56
72558;BME280;60583;50.094;8.748;2023-03-04T01:00:11;101310.78;;;2.29;78.29
72558;BME280;60583;50.094;8.748;2023-03-04T01:02:37;101275.19;;;2.14;77.73
72558;BME280;60583;50.094;8.748;2023-03-04T01:05:03;101317.50;;;2.33;78.78
72558;BME280;60583;50.094;8.748;2023-03-04T01:07:29;101298.84;;;2.25;78.23
72558;BME280;60583;50.094;8.748;2023-03-04T01:09:54;101289.53;;;2.21;78.27
72558;BME280;60583;50.094;8.748;2023-03-04T01:12:19;101270.75;;;2.26;78.09
72558;BME280;60583;50.094;8.748;2023-03-04T01:14:45;101302.13;;;2.49;78.03
72558;BME280;60583;50.094;8.748;2023-03-04T01:17:10;101278.03;;;2.33;77.53
72558;BME280;60583;50.094;8.748;2023-03-04T01:19:36;101302.50;;;2.45;77.85
72558;BME280;60583;50.094;8.748;2023-03-04T01:22:02;101297.88;;;2.69;76.78
72558;BME280;60583;50.094;8.748;2023-03-04T01:24:28;101308.50;;;2.79;76.52
72558;BME280;60583;50.094;8.748;2023-03-04T01:26:54;101275.06;;;2.58;76.58
72558;BME280;60583;50.094;8.748;2023-03-04T01:29:20;101290.09;;;2.68;76.45
72558;BME280;60583;50.094;8.748;2023-03-04T01:31:46;101284.88;;;2.88;76.16
72558;BME280;60583;50.094;8.748;2023-03-04T01:34:11;101283.19;;;2.67;77.15
72558;BME280;60583;50.094;8.748;2023-03-04T01:36:37;101271.72;;;2.56;77.15
72558;BME280;60583;50.094;8.748;2023-03-04T01:39:03;101278.25;;;2.41;78.40
72558;BME280;60583;50.094;8.748;2023-03-04T01:41:29;101250.50;;;2.37;78.07
72558;BME280;60583;50.094;8.748;2023-03-04T01:43:55;101262.16;;;2.55;77.66
72558;BME280;60583;50.094;8.748;2023-03-04T01:46:22;101264.84;;;2.65;77.49
72558;BME280;60583;50.094;8.748;2023-03-04T01:48:48;101254.41;;;2.75;77.54
72558;BME280;60583;50.094;8.748;2023-03-04T01:51:16;101265.38;;;2.80;76.56
72558;BME280;60583;50.094;8.748;2023-03-04T01:53:43;101258.25;;;2.71;76.93
72558;BME280;60583;50.094;8.748;2023-03-04T01:56:18;101253.06;;;2.80;76.38
72558;BME280;60583;50.094;8.748;2023-03-04T01:58:44;101253.63;;;2.63;77.23
72558;BME280;60583;50.094;8.748;2023-03-04T02:01:11;101251.91;;;2.73;77.35
72558;BME280;60583;50.094;8.748;2023-03-04T02:03:36;101217.41;;;2.55;77.09
72558;BME280;60583;50.094;8.748;2023-03-04T02:06:02;101245.34;;;2.68;77.07
72558;BME280;60583;50.094;8.748;2023-03-04T02:08:28;101235.06;;;2.65;76.82
72558;BME280;60583;50.094;8.748;2023-03-04T02:10:53;101164.53;;;2.27;76.94
72558;BME280;60583;50.094;8.748;2023-03-04T02:13:19;101253.94;;;2.70;76.36
72558;BME280;60583;50.094;8.748;2023-03-04T02:15:45;101246.16;;;2.47;77.16
72558;BME280;60583;50.094;8.748;2023-03-04T02:18:20;101239.59;;;2.42;77.22
72558;BME280;60583;50.094;8.748;2023-03-04T02:21:15;101216.84;;;2.09;77.71
72558;BME280;60583;50.094;8.748;2023-03-04T02:23:51;101242.38;;;2.29;77.43
72558;BME280;60583;50.094;8.748;2023-03-04T02:26:19;101231.28;;;2.26;77.59
72558;BME280;60583;50.094;8.748;2023-03-04T02:28:46;101234.88;;;2.25;77.79
72558;BME280;60583;50.094;8.748;2023-03-04T02:31:22;101233.22;;;2.24;77.77
72558;BME280;60583;50.094;8.748;2023-03-04T02:33:49;101216.50;;;2.14;77.68
72558;BME280;60583;50.094;8.748;2023-03-04T02:36:15;101234.41;;;2.20;78.26
72558;BME280;60583;50.094;8.748;2023-03-04T02:38:40;101192.91;;;1.80;77.89
72558;BME280;60583;50.094;8.748;2023-03-04T02:41:10;101232.16;;;2.15;78.13
72558;BME280;60583;50.094;8.748;2023-03-04T02:43:36;101184.31;;;1.78;78.56
72558;BME280;60583;50.094;8.748;2023-03-04T02:46:02;101228.34;;;1.97;78.81
72558;BME280;60583;50.094;8.748;2023-03-04T02:48:27;101208.88;;;2.00;78.58
72558;BME280;60583;50.094;8.748;2023-03-04T02:50:53;101221.19;;;1.99;78.15
72558;BME280;60583;50.094;8.748;2023-03-04T02:53:19;101137.53;;;1.39;78.71
72558;BME280;60583;50.094;8.748;2023-03-04T02:55:46;101197.34;;;1.58;79.51
72558;BME280;60583;50.094;8.748;2023-03-04T02:58:12;101219.81;;;1.62;79.95
72558;BME280;60583;50.094;8.748;2023-03-04T03:00:38;101205.94;;;1.49;79.85
72558;BME280;60583;50.094;8.748;2023-03-04T03:03:04;101174.81;;;1.33;79.74
72558;BME280;60583;50.094;8.748;2023-03-04T03:05:31;101162.38;;;1.24;80.08
72558;BME280;60583;50.094;8.748;2023-03-04T03:07:57;101169.66;;;1.32;80.04
72558;BME280;60583;50.094;8.748;2023-03-04T03:10:23;101177.78;;;1.40;79.60
72558;BME280;60583;50.094;8.748;2023-03-04T03:12:49;101220.88;;;1.59;79.72
72558;BME280;60583;50.094;8.748;2023-03-04T03:15:14;101200.34;;;1.31;79.69
72558;BME280;60583;50.094;8.748;2023-03-04T03:17:40;101201.78;;;1.35;80.24
72558;BME280;60583;50.094;8.748;2023-03-04T03:20:07;101201.31;;;1.30;80.53
72558;BME280;60583;50.094;8.748;2023-03-04T03:22:32;101210.38;;;1.15;80.83
72558;BME280;60583;50.094;8.748;2023-03-04T03:24:58;101214.31;;;1.20;80.78
72558;BME280;60583;50.094;8.748;2023-03-04T03:27:23;101189.00;;;0.97;81.17
72558;BME280;60583;50.094;8.748;2023-03-04T03:29:49;101210.00;;;1.08;81.03
72558;BME280;60583;50.094;8.748;2023-03-04T03:32:15;101191.13;;;1.03;81.11
72558;BME280;60583;50.094;8.748;2023-03-04T03:34:40;101184.09;;;0.93;81.32
72558;BME280;60583;50.094;8.748;2023-03-04T03:37:06;101220.50;;;1.08;82.13
72558;BME280;60583;50.094;8.748;2023-03-04T03:39:31;101171.31;;;0.77;81.65
72558;BME280;60583;50.094;8.748;2023-03-04T03:41:57;101200.91;;;0.90;81.78
72558;BME280;60583;50.094;8.748;2023-03-04T03:44:22;101191.69;;;0.74;83.07
72558;BME280;60583;50.094;8.748;2023-03-04T03:46:47;101187.06;;;0.88;82.08
72558;BME280;60583;50.094;8.748;2023-03-04T03:49:13;101181.59;;;1.02;81.75
72558;BME280;60583;50.094;8.748;2023-03-04T03:51:39;101189.94;;;1.18;80.67
72558;BME280;60583;50.094;8.748;2023-03-04T03:54:04;101204.28;;;1.37;80.78
72558;BME280;60583;50.094;8.748;2023-03-04T03:56:30;101189.13;;;1.40;80.51
72558;BME280;60583;50.094;8.748;2023-03-04T03:58:55;101209.66;;;1.68;79.79
72558;BME280;60583;50.094;8.748;2023-03-04T04:01:20;101192.69;;;1.61;78.95
72558;BME280;60583;50.094;8.748;2023-03-04T04:03:46;101179.19;;;1.55;79.22
72558;BME280;60583;50.094;8.748;2023-03-04T04:06:11;101164.28;;;1.44;79.23
72558;BME280;60583;50.094;8.748;2023-03-04T04:08:37;101163.94;;;1.38;79.51
72558;BME280;60583;50.094;8.748;2023-03-04T04:11:03;101188.16;;;1.63;79.42
72558;BME280;60583;50.094;8.748;2023-03-04T04:13:28;101200.47;;;1.63;79.31
72558;BME280;60583;50.094;8.748;2023-03-04T04:15:54;101115.47;;;1.08;80.22
72558;BME280;60583;50.094;8.748;2023-03-04T04:18:19;101186.00;;;1.46;79.81
72558;BME280;60583;50.094;8.748;2023-03-04T04:20:45;101166.44;;;1.17;80.60
72558;BME280;60583;50.094;8.748;2023-03-04T04:23:10;101197.59;;;1.33;81.17
72558;BME280;60583;50.094;8.748;2023-03-04T04:25:36;101189.84;;;1.42;81.04
72558;BME280;60583;50.094;8.748;2023-03-04T04:28:02;101164.06;;;1.25;80.45
72558;BME280;60583;50.094;8.748;2023-03-04T04:30:27;101206.19;;;1.68;80.55
72558;BME280;60583;50.094;8.748;2023-03-04T04:32:53;101158.91;;;1.35;80.07
72558;BME280;60583;50.094;8.748;2023-03-04T04:35:18;101204.78;;;1.53;80.88
72558;BME280;60583;50.094;8.748;2023-03-04T04:37:44;101208.44;;;1.61;81.27
72558;BME280;60583;50.094;8.748;2023-03-04T04:40:09;101189.25;;;1.50;81.55
72558;BME280;60583;50.094;8.748;2023-03-04T04:42:35;101191.50;;;1.54;81.25
72558;BME280;60583;50.094;8.748;2023-03-04T04:45:01;101182.78;;;1.65;79.93
72558;BME280;60583;50.094;8.748;2023-03-04T04:47:26;101200.28;;;1.86;79.62
72558;BME280;60583;50.094;8.748;2023-03-04T04:49:52;101200.41;;;1.96;79.58
72558;BME280;60583;50.094;8.748;2023-03-04T04:52:17;101205.16;;;2.02;79.75
72558;BME280;60583;50.094;8.748;2023-03-04T04:54:43;101152.91;;;1.66;79.98
72558;BME280;60583;50.094;8.748;2023-03-04T04:57:08;101162.50;;;1.56;80.42
72558;BME280;60583;50.094;8.748;2023-03-04T04:59:34;101189.81;;;1.75;80.37
72558;BME280;60583;50.094;8.748;2023-03-04T05:01:59;101140.72;;;1.65;79.58
72558;BME280;60583;50.094;8.748;2023-03-04T05:04:25;101145.28;;;1.52;80.45
72558;BME280;60583;50.094;8.748;2023-03-04T05:06:50;101173.69;;;1.69;80.70
72558;BME280;60583;50.094;8.748;2023-03-04T05:09:16;101171.50;;;1.74;80.89
72558;BME280;60583;50.094;8.748;2023-03-04T05:11:41;101177.34;;;1.88;80.25
72558;BME280;60583;50.094;8.748;2023-03-04T05:14:07;101185.59;;;1.84;80.35
72558;BME280;60583;50.094;8.748;2023-03-04T05:16:32;101174.50;;;1.69;80.99
72558;BME280;60583;50.094;8.748;2023-03-04T05:18:58;101171.31;;;1.66;80.55
72558;BME280;60583;50.094;8.748;2023-03-04T05:21:23;101190.75;;;1.85;80.53
72558;BME280;60583;50.094;8.748;2023-03-04T05:23:49;101131.91;;;1.66;79.90
72558;BME280;60583;50.094;8.748;2023-03-04T05:26:17;101163.84;;;1.82;80.13
72558;BME280;60583;50.094;8.748;2023-03-04T05:28:43;101167.72;;;1.67;81.10
72558;BME280;60583;50.094;8.748;2023-03-04T05:31:09;101191.13;;;1.70;81.35
72558;BME280;60583;50.094;8.748;2023-03-04T05:33:35;101172.75;;;1.59;81.51
72558;BME280;60583;50.094;8.748;2023-03-04T05:36:01;101194.22;;;1.75;81.61
72558;BME280;60583;50.094;8.748;2023-03-04T05:38:27;101177.75;;;1.62;81.50
72558;BME280;60583;50.094;8.748;2023-03-04T05:40:57;101185.13;;;1.79;81.14
72558;BME280;60583;50.094;8.748;2023-03-04T05:43:24;101171.28;;;1.77;80.59
72558;BME280;60583;50.094;8.748;2023-03-04T05:45:50;101194.94;;;1.88;80.71
72558;BME280;60583;50.094;8.748;2023-03-04T05:48:15;101144.19;;;1.54;81.05
72558;BME280;60583;50.094;8.748;2023-03-04T05:50:41;101172.34;;;1.74;80.84
72558;BME280;60583;50.094;8.748;2023-03-04T05:53:06;101183.91;;;1.94;80.61
72558;BME280;60583;50.094;8.748;2023-03-04T05:55:32;101180.78;;;2.00;80.11
72558;BME280;60583;50.094;8.748;2023-03-04T05:57:57;101159.97;;;2.08;79.62
72558;BME280;60583;50.094;8.748;2023-03-04T06:00:24;101191.47;;;2.19;79.61
72558;BME280;60583;50.094;8.748;2023-03-04T06:02:49;101186.03;;;2.11;79.57
72558;BME280;60583;50.094;8.748;2023-03-04T06:05:16;101194.91;;;2.31;79.05
72558;BME280;60583;50.094;8.748;2023-03-04T06:07:42;101189.47;;;2.12;80.09
72558;BME280;60583;50.094;8.748;2023-03-04T06:10:08;101198.66;;;2.17;79.54
72558;BME280;60583;50.094;8.748;2023-03-04T06:12:34;101171.22;;;1.99;79.15
72558;BME280;60583;50.094;8.748;2023-03-04T06:15:00;101199.88;;;2.13;79.92
72558;BME280;60583;50.094;8.748;2023-03-04T06:17:28;101191.28;;;2.11;79.42
72558;BME280;60583;50.094;8.748;2023-03-04T06:19:53;101199.63;;;2.16;79.91
72558;BME280;60583;50.094;8.748;2023-03-04T06:22:18;101203.69;;;2.20;79.10
72558;BME280;60583;50.094;8.748;2023-03-04T06:24:44;101196.66;;;2.10;79.65
72558;BME280;60583;50.094;8.748;2023-03-04T06:27:09;101178.91;;;1.91;79.81
72558;BME280;60583;50.094;8.748;2023-03-04T06:29:35;101222.31;;;2.17;79.35
72558;BME280;60583;50.094;8.748;2023-03-04T06:32:00;101223.41;;;2.15;79.82
72558;BME280;60583;50.094;8.748;2023-03-04T06:34:26;101226.41;;;2.21;79.70
72558;BME280;60583;50.094;8.748;2023-03-04T06:36:52;101211.31;;;2.23;78.59
72558;BME280;60583;50.094;8.748;2023-03-04T06:39:18;101221.31;;;2.29;79.29
72558;BME280;60583;50.094;8.748;2023-03-04T06:41:43;101197.47;;;2.21;78.72
72558;BME280;60583;50.094;8.748;2023-03-04T06:44:09;101231.06;;;2.49;77.81
72558;BME280;60583;50.094;8.748;2023-03-04T06:46:34;101237.06;;;2.51;78.00
72558;BME280;60583;50.094;8.748;2023-03-04T06:49:01;101244.03;;;2.41;78.35
72558;BME280;60583;50.094;8.748;2023-03-04T06:51:26;101229.81;;;2.33;79.15
72558;BME280;60583;50.094;8.748;2023-03-04T06:53:52;101198.28;;;2.22;78.12
72558;BME280;60583;50.094;8.748;2023-03-04T06:56:17;101230.34;;;2.47;78.63
72558;BME280;60583;50.094;8.748;2023-03-04T06:58:43;101241.31;;;2.64;77.83
72558;BME280;60583;50.094;8.748;2023-03-04T07:01:19;101234.88;;;2.56;77.92
72558;BME280;60583;50.094;8.748;2023-03-04T07:03:46;101243.31;;;2.71;77.74
72558;BME280;60583;50.094;8.748;2023-03-04T07:06:13;101240.78;;;2.70;77.25
72558;BME280;60583;50.094;8.748;2023-03-04T07:08:39;101200.03;;;2.64;77.13
72558;BME280;60583;50.094;8.748;2023-03-04T07:11:05;101242.59;;;2.90;77.28
72558;BME280;60583;50.094;8.748;2023-03-04T07:13:31;101254.22;;;2.87;77.37
72558;BME280;60583;50.094;8.748;2023-03-04T07:15:58;101246.47;;;2.86;77.33
72558;BME280;60583;50.094;8.748;2023-03-04T07:18:24;101239.50;;;2.85;77.49
72558;BME280;60583;50.094;8.748;2023-03-04T07:20:53;101251.47;;;2.89;77.33
72558;BME280;60583;50.094;8.748;2023-03-04T07:23:18;101220.56;;;2.70;77.53
72558;BME280;60583;50.094;8.748;2023-03-04T07:25:44;101233.53;;;2.83;77.26
72558;BME280;60583;50.094;8.748;2023-03-04T07:28:10;101253.06;;;3.01;76.87
72558;BME280;60583;50.094;8.748;2023-03-04T07:30:36;101218.00;;;2.80;76.54
72558;BME280;60583;50.094;8.748;2023-03-04T07:33:01;101236.22;;;2.92;77.08
72558;BME280;60583;50.094;8.748;2023-03-04T07:35:27;101256.88;;;3.08;76.84
72558;BME280;60583;50.094;8.748;2023-03-04T07:37:52;101271.13;;;3.26;76.44
72558;BME280;60583;50.094;8.748;2023-03-04T07:40:18;101184.09;;;2.86;76.25
72558;BME280;60583;50.094;8.748;2023-03-04T07:42:51;101264.34;;;3.33;75.45
72558;BME280;60583;50.094;8.748;2023-03-04T07:45:17;101261.72;;;3.33;75.54
72558;BME280;60583;50.094;8.748;2023-03-04T07:47:43;101262.88;;;3.40;75.42
72558;BME280;60583;50.094;8.748;2023-03-04T07:50:09;101270.13;;;3.48;74.73
72558;BME280;60583;50.094;8.748;2023-03-04T07:52:39;101258.03;;;3.45;74.51
72558;BME280;60583;50.094;8.748;2023-03-04T07:55:05;101267.66;;;3.56;74.47
72558;BME280;60583;50.094;8.748;2023-03-04T07:57:31;101244.34;;;3.51;73.34
72558;BME280;60583;50.094;8.748;2023-03-04T07:59:56;101222.13;;;3.44;73.93
72558;BME280;60583;50.094;8.748;2023-03-04T08:02:22;101127.31;;;2.93;73.45
72558;BME280;60583;50.094;8.748;2023-03-04T08:04:47;101215.50;;;3.50;73.11
72558;BME280;60583;50.094;8.748;2023-03-04T08:07:13;101226.91;;;3.60;73.65
72558;BME280;60583;50.094;8.748;2023-03-04T08:09:38;101272.53;;;3.91;72.80
72558;BME280;60583;50.094;8.748;2023-03-04T08:12:04;101264.50;;;3.92;72.12
72558;BME280;60583;50.094;8.748;2023-03-04T08:14:29;101259.22;;;3.92;72.10
72558;BME280;60583;50.094;8.748;2023-03-04T08:16:55;101278.66;;;4.01;71.91
72558;BME280;60583;50.094;8.748;2023-03-04T08:19:20;101235.88;;;3.88;72.30
72558;BME280;60583;50.094;8.748;2023-03-04T08:21:46;101274.13;;;4.12;71.65
72558;BME280;60583;50.094;8.748;2023-03-04T08:24:11;101281.50;;;4.18;71.04
72558;BME280;60583;50.094;8.748;2023-03-04T08:26:42;101278.59;;;4.21;71.04
72558;BME280;60583;50.094;8.748;2023-03-04T08:29:18;101279.00;;;4.26;70.02
72558;BME280;60583;50.094;8.748;2023-03-04T08:31:45;101279.59;;;4.30;70.29
72558;BME280;60583;50.094;8.748;2023-03-04T08:34:12;101266.75;;;4.16;70.23
72558;BME280;60583;50.094;8.748;2023-03-04T08:36:39;101280.94;;;4.15;70.64
72558;BME280;60583;50.094;8.748;2023-03-04T08:39:05;101238.13;;;4.02;70.62
72558;BME280;60583;50.094;8.748;2023-03-04T08:41:31;101239.81;;;4.03;70.28
72558;BME280;60583;50.094;8.748;2023-03-04T08:43:58;101282.91;;;4.32;69.58
72558;BME280;60583;50.094;8.748;2023-03-04T08:46:24;101285.44;;;4.43;69.76
72558;BME280;60583;50.094;8.748;2023-03-04T08:48:49;101286.13;;;4.35;70.56
72558;BME280;60583;50.094;8.748;2023-03-04T08:51:15;101288.78;;;4.45;70.10
72558;BME280;60583;50.094;8.748;2023-03-04T08:53:41;101278.50;;;4.42;69.55
72558;BME280;60583;50.094;8.748;2023-03-04T08:56:07;101254.97;;;4.20;69.95
72558;BME280;60583;50.094;8.748;2023-03-04T08:58:33;101291.69;;;4.51;69.87
72558;BME280;60583;50.094;8.748;2023-03-04T09:00:59;101288.94;;;4.63;69.57
72558;BME280;60583;50.094;8.748;2023-03-04T09:03:25;101272.94;;;4.35;70.03
72558;BME280;60583;50.094;8.748;2023-03-04T09:05:51;101283.63;;;4.43;69.65
72558;BME280;60583;50.094;8.748;2023-03-04T09:08:16;101281.97;;;4.42;70.11
72558;BME280;60583;50.094;8.748;2023-03-04T09:10:43;101244.44;;;4.20;70.01
72558;BME280;60583;50.094;8.748;2023-03-04T09:13:09;101236.50;;;4.20;69.62
72558;BME280;60583;50.094;8.748;2023-03-04T09:15:36;101248.06;;;4.38;69.51
72558;BME280;60583;50.094;8.748;2023-03-04T09:18:03;101284.88;;;4.49;69.38
72558;BME280;60583;50.094;8.748;2023-03-04T09:20:29;101276.53;;;4.53;69.40
72558;BME280;60583;50.094;8.748;2023-03-04T09:22:58;101282.41;;;4.57;69.01
72558;BME280;60583;50.094;8.748;2023-03-04T09:25:23;101289.06;;;4.51;69.68
72558;BME280;60583;50.094;8.748;2023-03-04T09:27:48;101193.97;;;4.13;68.40
72558;BME280;60583;50.094;8.748;2023-03-04T09:30:14;101240.56;;;4.43;68.45
72558;BME280;60583;50.094;8.748;2023-03-04T09:32:40;101277.38;;;4.54;68.47
72558;BME280;60583;50.094;8.748;2023-03-04T09:35:06;101242.63;;;4.49;68.68
72558;BME280;60583;50.094;8.748;2023-03-04T09:37:32;101284.63;;;4.71;67.91
72558;BME280;60583;50.094;8.748;2023-03-04T09:39:58;101278.38;;;4.82;68.40
72558;BME280;60583;50.094;8.748;2023-03-04T09:42:31;101208.75;;;4.25;68.20
72558;BME280;60583;50.094;8.748;2023-03-04T09:44:58;101258.50;;;4.68;67.43
72558;BME280;60583;50.094;8.748;2023-03-04T09:47:23;101276.00;;;4.79;67.77
72558;BME280;60583;50.094;8.748;2023-03-04T09:49:56;101220.97;;;4.45;67.57
72558;BME280;60583;50.094;8.748;2023-03-04T09:52:32;101276.28;;;4.85;67.68
72558;BME280;60583;50.094;8.748;2023-03-04T10:01:01;101275.28;;;5.15;66.80
72558;BME280;60583;50.094;8.748;2023-03-04T10:06:20;101281.00;;;5.10;66.53
72558;BME280;60583;50.094;8.748;2023-03-04T10:09:05;101281.25;;;5.17;66.23
72558;BME280;60583;50.094;8.748;2023-03-04T10:11:45;101270.00;;;5.05;66.47
72558;BME280;60583;50.094;8.748;2023-03-04T10:16:56;101271.50;;;5.27;65.08
72558;BME280;60583;50.094;8.748;2023-03-04T10:21:54;101256.59;;;5.36;65.43
72558;BME280;60583;50.094;8.748;2023-03-04T10:24:23;101259.94;;;5.38;65.30
72558;BME280;60583;50.094;8.748;2023-03-04T10:26:54;101261.84;;;5.45;64.99
72558;BME280;60583;50.094;8.748;2023-03-04T10:29:22;101259.34;;;5.44;65.09
72558;BME280;60583;50.094;8.748;2023-03-04T10:31:49;101241.69;;;5.35;64.70
72558;BME280;60583;50.094;8.748;2023-03-04T10:34:16;101251.44;;;5.34;65.18
72558;BME280;60583;50.094;8.748;2023-03-04T10:36:58;101261.00;;;5.45;65.45
72558;BME280;60583;50.094;8.748;2023-03-04T10:39:33;101255.97;;;5.51;64.86
72558;BME280;60583;50.094;8.748;2023-03-04T10:44:25;101213.00;;;5.40;64.31
72558;BME280;60583;50.094;8.748;2023-03-04T10:46:53;101246.84;;;5.73;63.96
72558;BME280;60583;50.094;8.748;2023-03-04T10:49:19;101249.38;;;5.65;64.27
72558;BME280;60583;50.094;8.748;2023-03-04T10:51:53;101245.22;;;5.62;64.20
72558;BME280;60583;50.094;8.748;2023-03-04T10:54:23;101238.88;;;5.82;63.75
72558;BME280;60583;50.094;8.748;2023-03-04T10:57:16;101233.56;;;5.82;63.74
72558;BME280;60583;50.094;8.748;2023-03-04T10:59:49;101170.25;;;5.44;63.62
72558;BME280;60583;50.094;8.748;2023-03-04T11:02:25;101237.88;;;5.93;63.32
72558;BME280;60583;50.094;8.748;2023-03-04T11:05:20;101238.50;;;6.05;63.14
72558;BME280;60583;50.094;8.748;2023-03-04T11:07:50;101207.38;;;5.89;62.75
72558;BME280;60583;50.094;8.748;2023-03-04T11:13:11;101213.50;;;5.90;62.72
72558;BME280;60583;50.094;8.748;2023-03-04T11:16:01;101199.22;;;5.73;63.11
72558;BME280;60583;50.094;8.748;2023-03-04T11:18:38;101230.91;;;5.92;62.58
72558;BME280;60583;50.094;8.748;2023-03-04T11:21:06;101223.91;;;6.01;62.66
72558;BME280;60583;50.094;8.748;2023-03-04T11:26:46;101225.75;;;5.91;62.68
72558;BME280;60583;50.094;8.748;2023-03-04T11:29:27;101217.00;;;5.90;62.85
72558;BME280;60583;50.094;8.748;2023-03-04T11:34:33;101213.25;;;5.83;63.13
72558;BME280;60583;50.094;8.748;2023-03-04T11:37:51;101205.03;;;5.86;63.59
72558;BME280;60583;50.094;8.748;2023-03-04T11:39:58;101221.00;;;5.94;63.48
72558;BME280;60583;50.094;8.748;2023-03-04T11:42:57;101218.50;;;5.93;63.27
72558;BME280;60583;50.094;8.748;2023-03-04T11:46:09;101220.41;;;6.00;63.16
72558;BME280;60583;50.094;8.748;2023-03-04T11:57:53;101184.03;;;6.02;62.33
72558;BME280;60583;50.094;8.748;2023-03-04T12:00:47;101203.97;;;6.24;62.73
72558;BME280;60583;50.094;8.748;2023-03-04T12:06:37;101191.41;;;6.26;62.07
72558;BME280;60583;50.094;8.748;2023-03-04T12:09:16;101180.56;;;6.19;62.05
72558;BME280;60583;50.094;8.748;2023-03-04T12:14:55;101139.13;;;6.10;61.71
72558;BME280;60583;50.094;8.748;2023-03-04T12:26:32;101140.09;;;6.27;61.53
72558;BME280;60583;50.094;8.748;2023-03-04T12:28:55;101176.09;;;6.55;61.45
72558;BME280;60583;50.094;8.748;2023-03-04T12:31:52;101155.44;;;6.59;60.83
72558;BME280;60583;50.094;8.748;2023-03-04T12:34:27;101170.41;;;6.68;60.47
72558;BME280;60583;50.094;8.748;2023-03-04T12:37:08;101118.91;;;6.27;60.80
72558;BME280;60583;50.094;8.748;2023-03-04T12:42:28;101153.44;;;6.61;60.31
72558;BME280;60583;50.094;8.748;2023-03-04T12:45:21;101144.63;;;6.78;60.12
72558;BME280;60583;50.094;8.748;2023-03-04T12:48:04;101132.47;;;6.93;59.78
72558;BME280;60583;50.094;8.748;2023-03-04T12:50:47;101082.88;;;6.85;59.65
72558;BME280;60583;50.094;8.748;2023-03-04T12:53:37;101131.56;;;7.10;59.00
72558;BME280;60583;50.094;8.748;2023-03-04T12:56:04;101101.69;;;7.00;59.07
72558;BME280;60583;50.094;8.748;2023-03-04T12:58:32;101093.78;;;7.08;58.11
72558;BME280;60583;50.094;8.748;2023-03-04T13:03:54;101107.75;;;7.18;57.88
72558;BME280;60583;50.094;8.748;2023-03-04T13:12:15;101061.56;;;6.95;56.97
72558;BME280;60583;50.094;8.748;2023-03-04T13:17:37;101095.06;;;7.38;57.60
72558;BME280;60583;50.094;8.748;2023-03-04T13:20:31;101086.75;;;7.33;56.97
72558;BME280;60583;50.094;8.748;2023-03-04T13:23:01;101089.63;;;7.47;57.76
72558;BME280;60583;50.094;8.748;2023-03-04T13:25:34;101061.72;;;7.35;56.94
72558;BME280;60583;50.094;8.748;2023-03-04T13:41:11;101062.16;;;7.15;58.22
72558;BME280;60583;50.094;8.748;2023-03-04T13:53:43;101061.81;;;7.18;58.59
72558;BME280;60583;50.094;8.748;2023-03-04T13:56:19;101031.81;;;7.09;58.85
72558;BME280;60583;50.094;8.748;2023-03-04T13:58:48;101043.16;;;7.27;58.07
72558;BME280;60583;50.094;8.748;2023-03-04T14:01:26;101057.03;;;7.21;58.84
72558;BME280;60583;50.094;8.748;2023-03-04T14:03:53;101051.88;;;7.12;58.47
72558;BME280;60583;50.094;8.748;2023-03-04T14:06:25;101045.09;;;7.17;58.47
72558;BME280;60583;50.094;8.748;2023-03-04T14:08:52;101041.44;;;7.18;58.11
72558;BME280;60583;50.094;8.748;2023-03-04T14:11:33;101047.97;;;7.32;58.93
72558;BME280;60583;50.094;8.748;2023-03-04T14:14:03;101053.59;;;7.29;58.32
72558;BME280;60583;50.094;8.748;2023-03-04T14:16:32;101027.19;;;7.19;58.78
72558;BME280;60583;50.094;8.748;2023-03-04T14:19:05;100974.06;;;6.87;58.16
72558;BME280;60583;50.094;8.748;2023-03-04T14:21:31;101034.03;;;7.30;57.86
72558;BME280;60583;50.094;8.748;2023-03-04T14:24:06;101032.19;;;7.30;58.77
72558;BME280;60583;50.094;8.748;2023-03-04T14:26:32;101033.53;;;7.34;58.19
72558;BME280;60583;50.094;8.748;2023-03-04T14:28:59;101029.53;;;7.30;59.46
72558;BME280;60583;50.094;8.748;2023-03-04T14:31:28;100999.56;;;7.30;58.73
72558;BME280;60583;50.094;8.748;2023-03-04T14:33:56;101031.72;;;7.35;59.46